sensor_id;sensor_type;location;lat;lon;timestamp;P1;durP1;ratioP1;P2;durP2;ratioP2
9072;SDS011;4572;41.642;25.370;2023-12-07T00:01:07;23.87;;;9.77;;
9072;SDS011;4572;41.642;25.370;2023-12-07T00:03:32;21.53;;;10.70;;
9072;SDS011;4572;41.642;25.370;2023-12-07T00:05:58;19.57;;;10.07;;
9072;SDS011;4572;41.642;25.370;2023-12-07T00:08:23;18.47;;;9.63;;
9072;SDS011;4572;41.642;25.370;2023-12-07T00:10:49;24.00;;;9.83;;
9072;SDS011;4572;41.642;25.370;2023-12-07T00:13:15;22.53;;;10.30;;
9072;SDS011;4572;41.642;25.370;2023-12-07T00:15:41;17.93;;;10.30;;
9072;SDS011;4572;41.642;25.370;2023-12-07T00:18:06;17.67;;;9.17;;
9072;SDS011;4572;41.642;25.370;2023-12-07T00:20:32;21.00;;;8.77;;
9072;SDS011;4572;41.642;25.370;2023-12-07T00:22:57;15.53;;;9.30;;
9072;SDS011;4572;41.642;25.370;2023-12-07T00:25:23;18.57;;;9.00;;
9072;SDS011;4572;41.642;25.370;2023-12-07T00:27:48;16.40;;;7.53;;
9072;SDS011;4572;41.642;25.370;2023-12-07T00:30:14;13.90;;;7.57;;
9072;SDS011;4572;41.642;25.370;2023-12-07T00:32:40;14.40;;;7.93;;
9072;SDS011;4572;41.642;25.370;2023-12-07T00:35:12;13.60;;;7.67;;
9072;SDS011;4572;41.642;25.370;2023-12-07T00:37:38;18.40;;;7.70;;
9072;SDS011;4572;41.642;25.370;2023-12-07T00:40:04;13.57;;;7.90;;
9072;SDS011;4572;41.642;25.370;2023-12-07T00:42:30;13.13;;;7.60;;
9072;SDS011;4572;41.642;25.370;2023-12-07T00:44:56;24.63;;;9.20;;
9072;SDS011;4572;41.642;25.370;2023-12-07T00:47:22;18.47;;;9.70;;
9072;SDS011;4572;41.642;25.370;2023-12-07T00:49:47;21.27;;;9.87;;
9072;SDS011;4572;41.642;25.370;2023-12-07T00:52:13;18.50;;;9.37;;
9072;SDS011;4572;41.642;25.370;2023-12-07T00:54:39;18.73;;;9.33;;
9072;SDS011;4572;41.642;25.370;2023-12-07T00:57:05;19.83;;;11.10;;
9072;SDS011;4572;41.642;25.370;2023-12-07T00:59:31;22.70;;;10.43;;
9072;SDS011;4572;41.642;25.370;2023-12-07T01:02:05;17.50;;;9.57;;
9072;SDS011;4572;41.642;25.370;2023-12-07T01:04:31;17.93;;;8.27;;
9072;SDS011;4572;41.642;25.370;2023-12-07T01:06:57;17.27;;;8.60;;
9072;SDS011;4572;41.642;25.370;2023-12-07T01:09:23;17.30;;;8.23;;
9072;SDS011;4572;41.642;25.370;2023-12-07T01:11:49;15.80;;;8.50;;
9072;SDS011;4572;41.642;25.370;2023-12-07T01:14:15;18.57;;;9.43;;
9072;SDS011;4572;41.642;25.370;2023-12-07T01:16:41;22.17;;;11.00;;
9072;SDS011;4572;41.642;25.370;2023-12-07T01:19:08;20.53;;;10.33;;
9072;SDS011;4572;41.642;25.370;2023-12-07T01:21:33;16.70;;;8.40;;
9072;SDS011;4572;41.642;25.370;2023-12-07T01:23:59;22.03;;;10.30;;
9072;SDS011;4572;41.642;25.370;2023-12-07T01:26:25;21.03;;;8.87;;
9072;SDS011;4572;41.642;25.370;2023-12-07T01:28:50;16.50;;;8.00;;
9072;SDS011;4572;41.642;25.370;2023-12-07T01:31:16;14.90;;;7.47;;
9072;SDS011;4572;41.642;25.370;2023-12-07T01:33:42;18.23;;;8.40;;
9072;SDS011;4572;41.642;25.370;2023-12-07T01:36:08;14.63;;;7.07;;
9072;SDS011;4572;41.642;25.370;2023-12-07T01:38:34;9.23;;;6.10;;
9072;SDS011;4572;41.642;25.370;2023-12-07T01:40:59;8.97;;;5.97;;
9072;SDS011;4572;41.642;25.370;2023-12-07T01:43:25;12.77;;;6.20;;
9072;SDS011;4572;41.642;25.370;2023-12-07T01:45:51;8.87;;;5.43;;
9072;SDS011;4572;41.642;25.370;2023-12-07T01:48:19;10.47;;;5.83;;
9072;SDS011;4572;41.642;25.370;2023-12-07T01:50:46;10.53;;;6.03;;
9072;SDS011;4572;41.642;25.370;2023-12-07T01:53:11;5.27;;;3.60;;
9072;SDS011;4572;41.642;25.370;2023-12-07T01:55:37;8.57;;;4.73;;
9072;SDS011;4572;41.642;25.370;2023-12-07T01:58:03;6.90;;;3.67;;
9072;SDS011;4572;41.642;25.370;2023-12-07T02:00:29;7.20;;;4.97;;
9072;SDS011;4572;41.642;25.370;2023-12-07T02:02:55;7.07;;;3.87;;
9072;SDS011;4572;41.642;25.370;2023-12-07T02:05:21;7.20;;;4.23;;
9072;SDS011;4572;41.642;25.370;2023-12-07T02:07:47;6.30;;;4.27;;
9072;SDS011;4572;41.642;25.370;2023-12-07T02:10:13;9.53;;;5.00;;
9072;SDS011;4572;41.642;25.370;2023-12-07T02:12:38;8.93;;;4.63;;
9072;SDS011;4572;41.642;25.370;2023-12-07T02:15:04;6.03;;;4.07;;
9072;SDS011;4572;41.642;25.370;2023-12-07T02:17:33;6.93;;;4.33;;
9072;SDS011;4572;41.642;25.370;2023-12-07T02:20:05;8.93;;;4.97;;
9072;SDS011;4572;41.642;25.370;2023-12-07T02:22:36;8.07;;;4.53;;
9072;SDS011;4572;41.642;25.370;2023-12-07T02:25:04;9.07;;;4.80;;
9072;SDS011;4572;41.642;25.370;2023-12-07T02:27:33;9.13;;;5.40;;
9072;SDS011;4572;41.642;25.370;2023-12-07T02:30:02;16.30;;;7.77;;
9072;SDS011;4572;41.642;25.370;2023-12-07T02:32:29;14.73;;;7.27;;
9072;SDS011;4572;41.642;25.370;2023-12-07T02:34:55;20.03;;;9.20;;
9072;SDS011;4572;41.642;25.370;2023-12-07T02:37:21;10.53;;;5.97;;
9072;SDS011;4572;41.642;25.370;2023-12-07T02:39:47;10.43;;;5.23;;
9072;SDS011;4572;41.642;25.370;2023-12-07T02:42:13;7.90;;;4.57;;
9072;SDS011;4572;41.642;25.370;2023-12-07T02:44:39;8.47;;;4.50;;
9072;SDS011;4572;41.642;25.370;2023-12-07T02:47:05;9.47;;;5.30;;
9072;SDS011;4572;41.642;25.370;2023-12-07T02:49:31;8.70;;;5.00;;
9072;SDS011;4572;41.642;25.370;2023-12-07T02:51:56;9.10;;;4.13;;
9072;SDS011;4572;41.642;25.370;2023-12-07T02:54:22;6.90;;;4.10;;
9072;SDS011;4572;41.642;25.370;2023-12-07T02:56:48;8.87;;;4.70;;
9072;SDS011;4572;41.642;25.370;2023-12-07T02:59:13;6.30;;;4.07;;
9072;SDS011;4572;41.642;25.370;2023-12-07T03:01:39;9.33;;;4.50;;
9072;SDS011;4572;41.642;25.370;2023-12-07T03:04:04;7.33;;;4.07;;
9072;SDS011;4572;41.642;25.370;2023-12-07T03:06:30;6.70;;;4.07;;
9072;SDS011;4572;41.642;25.370;2023-12-07T03:08:55;7.30;;;4.23;;
9072;SDS011;4572;41.642;25.370;2023-12-07T03:11:21;9.40;;;4.03;;
9072;SDS011;4572;41.642;25.370;2023-12-07T03:13:47;8.57;;;3.70;;
9072;SDS011;4572;41.642;25.370;2023-12-07T03:16:12;8.33;;;4.17;;
9072;SDS011;4572;41.642;25.370;2023-12-07T03:18:38;7.10;;;4.00;;
9072;SDS011;4572;41.642;25.370;2023-12-07T03:21:04;6.73;;;4.43;;
9072;SDS011;4572;41.642;25.370;2023-12-07T03:23:29;8.80;;;4.27;;
9072;SDS011;4572;41.642;25.370;2023-12-07T03:25:55;6.63;;;3.77;;
9072;SDS011;4572;41.642;25.370;2023-12-07T03:28:20;7.27;;;4.20;;
9072;SDS011;4572;41.642;25.370;2023-12-07T03:30:46;5.27;;;4.07;;
9072;SDS011;4572;41.642;25.370;2023-12-07T03:33:12;9.00;;;4.67;;
9072;SDS011;4572;41.642;25.370;2023-12-07T03:35:37;9.80;;;4.93;;
9072;SDS011;4572;41.642;25.370;2023-12-07T03:38:03;8.60;;;5.10;;
9072;SDS011;4572;41.642;25.370;2023-12-07T03:40:28;6.60;;;4.07;;
9072;SDS011;4572;41.642;25.370;2023-12-07T03:42:54;7.07;;;4.43;;
9072;SDS011;4572;41.642;25.370;2023-12-07T03:45:19;9.30;;;5.10;;
9072;SDS011;4572;41.642;25.370;2023-12-07T03:47:45;13.53;;;5.33;;
9072;SDS011;4572;41.642;25.370;2023-12-07T03:50:11;8.77;;;4.80;;
9072;SDS011;4572;41.642;25.370;2023-12-07T03:52:37;6.70;;;3.93;;
9072;SDS011;4572;41.642;25.370;2023-12-07T03:55:02;7.10;;;4.93;;
9072;SDS011;4572;41.642;25.370;2023-12-07T03:57:28;8.43;;;4.27;;
9072;SDS011;4572;41.642;25.370;2023-12-07T03:59:54;7.23;;;3.80;;
9072;SDS011;4572;41.642;25.370;2023-12-07T04:02:19;8.83;;;4.93;;
9072;SDS011;4572;41.642;25.370;2023-12-07T04:04:45;9.60;;;4.63;;
9072;SDS011;4572;41.642;25.370;2023-12-07T04:07:10;7.80;;;4.40;;
9072;SDS011;4572;41.642;25.370;2023-12-07T04:09:36;8.70;;;5.00;;
9072;SDS011;4572;41.642;25.370;2023-12-07T04:12:01;9.20;;;5.17;;
9072;SDS011;4572;41.642;25.370;2023-12-07T04:14:28;8.00;;;4.90;;
9072;SDS011;4572;41.642;25.370;2023-12-07T04:16:54;10.67;;;4.73;;
9072;SDS011;4572;41.642;25.370;2023-12-07T04:19:19;8.33;;;5.10;;
9072;SDS011;4572;41.642;25.370;2023-12-07T04:21:45;7.60;;;3.63;;
9072;SDS011;4572;41.642;25.370;2023-12-07T04:24:10;8.00;;;4.53;;
9072;SDS011;4572;41.642;25.370;2023-12-07T04:26:36;7.73;;;3.53;;
9072;SDS011;4572;41.642;25.370;2023-12-07T04:29:02;5.93;;;3.87;;
9072;SDS011;4572;41.642;25.370;2023-12-07T04:31:27;7.03;;;4.80;;
9072;SDS011;4572;41.642;25.370;2023-12-07T04:33:53;7.80;;;4.63;;
9072;SDS011;4572;41.642;25.370;2023-12-07T04:36:19;11.33;;;4.50;;
9072;SDS011;4572;41.642;25.370;2023-12-07T04:38:44;8.20;;;5.17;;
9072;SDS011;4572;41.642;25.370;2023-12-07T04:41:10;9.90;;;5.43;;
9072;SDS011;4572;41.642;25.370;2023-12-07T04:43:35;11.20;;;5.57;;
9072;SDS011;4572;41.642;25.370;2023-12-07T04:46:01;9.80;;;5.10;;
9072;SDS011;4572;41.642;25.370;2023-12-07T04:48:26;8.23;;;4.90;;
9072;SDS011;4572;41.642;25.370;2023-12-07T04:50:52;6.27;;;4.33;;
9072;SDS011;4572;41.642;25.370;2023-12-07T04:53:17;5.93;;;3.97;;
9072;SDS011;4572;41.642;25.370;2023-12-07T04:55:43;8.30;;;3.97;;
9072;SDS011;4572;41.642;25.370;2023-12-07T04:58:12;7.00;;;4.10;;
9072;SDS011;4572;41.642;25.370;2023-12-07T05:00:38;6.60;;;4.17;;
9072;SDS011;4572;41.642;25.370;2023-12-07T05:03:03;5.33;;;3.57;;
9072;SDS011;4572;41.642;25.370;2023-12-07T05:05:29;8.47;;;4.37;;
9072;SDS011;4572;41.642;25.370;2023-12-07T05:07:54;8.17;;;4.40;;
9072;SDS011;4572;41.642;25.370;2023-12-07T05:10:20;7.20;;;4.57;;
9072;SDS011;4572;41.642;25.370;2023-12-07T05:12:46;6.67;;;4.30;;
9072;SDS011;4572;41.642;25.370;2023-12-07T05:15:11;6.90;;;4.27;;
9072;SDS011;4572;41.642;25.370;2023-12-07T05:17:38;7.83;;;4.17;;
9072;SDS011;4572;41.642;25.370;2023-12-07T05:20:04;9.27;;;4.90;;
9072;SDS011;4572;41.642;25.370;2023-12-07T05:22:30;8.03;;;4.53;;
9072;SDS011;4572;41.642;25.370;2023-12-07T05:24:55;6.63;;;4.60;;
9072;SDS011;4572;41.642;25.370;2023-12-07T05:27:21;8.13;;;4.10;;
9072;SDS011;4572;41.642;25.370;2023-12-07T05:29:47;6.57;;;3.50;;
9072;SDS011;4572;41.642;25.370;2023-12-07T05:32:12;6.87;;;3.87;;
9072;SDS011;4572;41.642;25.370;2023-12-07T05:34:38;5.50;;;3.50;;
9072;SDS011;4572;41.642;25.370;2023-12-07T05:37:04;7.83;;;5.07;;
9072;SDS011;4572;41.642;25.370;2023-12-07T05:39:29;8.43;;;4.87;;
9072;SDS011;4572;41.642;25.370;2023-12-07T05:41:55;7.93;;;4.87;;
9072;SDS011;4572;41.642;25.370;2023-12-07T05:44:21;10.83;;;5.60;;
9072;SDS011;4572;41.642;25.370;2023-12-07T05:46:48;9.67;;;5.80;;
9072;SDS011;4572;41.642;25.370;2023-12-07T05:49:14;7.73;;;4.10;;
9072;SDS011;4572;41.642;25.370;2023-12-07T05:51:39;9.10;;;5.23;;
9072;SDS011;4572;41.642;25.370;2023-12-07T05:54:05;7.03;;;5.20;;
9072;SDS011;4572;41.642;25.370;2023-12-07T05:56:31;7.43;;;4.10;;
9072;SDS011;4572;41.642;25.370;2023-12-07T05:58:57;6.77;;;4.27;;
9072;SDS011;4572;41.642;25.370;2023-12-07T06:01:22;8.50;;;4.50;;
9072;SDS011;4572;41.642;25.370;2023-12-07T06:03:49;8.47;;;5.57;;
9072;SDS011;4572;41.642;25.370;2023-12-07T06:06:15;11.23;;;5.50;;
9072;SDS011;4572;41.642;25.370;2023-12-07T06:08:40;8.90;;;5.73;;
9072;SDS011;4572;41.642;25.370;2023-12-07T06:11:07;8.57;;;4.53;;
9072;SDS011;4572;41.642;25.370;2023-12-07T06:13:32;10.00;;;5.27;;
9072;SDS011;4572;41.642;25.370;2023-12-07T06:15:58;9.50;;;5.23;;
9072;SDS011;4572;41.642;25.370;2023-12-07T06:18:24;9.03;;;5.27;;
9072;SDS011;4572;41.642;25.370;2023-12-07T06:20:50;14.37;;;7.60;;
9072;SDS011;4572;41.642;25.370;2023-12-07T06:23:15;10.37;;;5.70;;
9072;SDS011;4572;41.642;25.370;2023-12-07T06:25:41;9.80;;;5.80;;
9072;SDS011;4572;41.642;25.370;2023-12-07T06:28:07;13.40;;;6.60;;
9072;SDS011;4572;41.642;25.370;2023-12-07T06:30:32;9.50;;;5.37;;
9072;SDS011;4572;41.642;25.370;2023-12-07T06:32:58;9.93;;;5.60;;
9072;SDS011;4572;41.642;25.370;2023-12-07T06:35:24;7.67;;;5.03;;
9072;SDS011;4572;41.642;25.370;2023-12-07T06:37:49;7.93;;;4.50;;
9072;SDS011;4572;41.642;25.370;2023-12-07T06:40:15;9.47;;;5.47;;
9072;SDS011;4572;41.642;25.370;2023-12-07T06:42:40;9.53;;;4.93;;
9072;SDS011;4572;41.642;25.370;2023-12-07T06:45:06;7.10;;;5.20;;
9072;SDS011;4572;41.642;25.370;2023-12-07T06:47:36;11.00;;;7.33;;
9072;SDS011;4572;41.642;25.370;2023-12-07T06:50:03;13.27;;;6.63;;
9072;SDS011;4572;41.642;25.370;2023-12-07T06:52:29;12.03;;;6.33;;
9072;SDS011;4572;41.642;25.370;2023-12-07T06:54:55;25.40;;;6.23;;
9072;SDS011;4572;41.642;25.370;2023-12-07T06:57:21;12.43;;;6.20;;
9072;SDS011;4572;41.642;25.370;2023-12-07T06:59:46;12.93;;;5.70;;
9072;SDS011;4572;41.642;25.370;2023-12-07T07:02:12;9.27;;;5.77;;
9072;SDS011;4572;41.642;25.370;2023-12-07T07:04:38;12.37;;;6.07;;
9072;SDS011;4572;41.642;25.370;2023-12-07T07:07:04;9.13;;;5.33;;
9072;SDS011;4572;41.642;25.370;2023-12-07T07:09:29;9.87;;;5.93;;
9072;SDS011;4572;41.642;25.370;2023-12-07T07:11:55;12.30;;;5.60;;
9072;SDS011;4572;41.642;25.370;2023-12-07T07:14:23;8.80;;;5.13;;
9072;SDS011;4572;41.642;25.370;2023-12-07T07:16:49;12.50;;;5.73;;
9072;SDS011;4572;41.642;25.370;2023-12-07T07:19:14;11.37;;;5.50;;
9072;SDS011;4572;41.642;25.370;2023-12-07T07:21:42;10.33;;;6.00;;
9072;SDS011;4572;41.642;25.370;2023-12-07T07:24:07;14.60;;;7.47;;
9072;SDS011;4572;41.642;25.370;2023-12-07T07:26:33;11.33;;;6.13;;
9072;SDS011;4572;41.642;25.370;2023-12-07T07:28:58;12.50;;;6.07;;
9072;SDS011;4572;41.642;25.370;2023-12-07T07:31:24;17.23;;;12.10;;
9072;SDS011;4572;41.642;25.370;2023-12-07T07:33:50;9.83;;;5.93;;
9072;SDS011;4572;41.642;25.370;2023-12-07T07:36:15;11.23;;;5.87;;
9072;SDS011;4572;41.642;25.370;2023-12-07T07:38:41;14.10;;;7.75;;
9072;SDS011;4572;41.642;25.370;2023-12-07T07:41:09;12.23;;;7.30;;
9072;SDS011;4572;41.642;25.370;2023-12-07T07:43:36;13.27;;;6.87;;
9072;SDS011;4572;41.642;25.370;2023-12-07T07:46:02;19.73;;;9.43;;
9072;SDS011;4572;41.642;25.370;2023-12-07T07:48:28;16.10;;;8.03;;
9072;SDS011;4572;41.642;25.370;2023-12-07T07:50:54;19.13;;;9.07;;
9072;SDS011;4572;41.642;25.370;2023-12-07T07:53:19;17.30;;;10.23;;
9072;SDS011;4572;41.642;25.370;2023-12-07T07:55:45;14.87;;;9.00;;
9072;SDS011;4572;41.642;25.370;2023-12-07T07:58:12;14.67;;;7.90;;
9072;SDS011;4572;41.642;25.370;2023-12-07T08:00:37;13.50;;;7.57;;
9072;SDS011;4572;41.642;25.370;2023-12-07T08:03:03;16.57;;;8.90;;
9072;SDS011;4572;41.642;25.370;2023-12-07T08:05:28;13.93;;;7.83;;
9072;SDS011;4572;41.642;25.370;2023-12-07T08:07:54;16.87;;;9.07;;
9072;SDS011;4572;41.642;25.370;2023-12-07T08:10:20;15.47;;;9.43;;
9072;SDS011;4572;41.642;25.370;2023-12-07T08:12:46;17.03;;;9.50;;
9072;SDS011;4572;41.642;25.370;2023-12-07T08:15:11;15.63;;;7.93;;
9072;SDS011;4572;41.642;25.370;2023-12-07T08:17:39;15.37;;;9.10;;
9072;SDS011;4572;41.642;25.370;2023-12-07T08:20:06;14.40;;;8.13;;
9072;SDS011;4572;41.642;25.370;2023-12-07T08:22:36;15.57;;;7.57;;
9072;SDS011;4572;41.642;25.370;2023-12-07T08:25:02;12.93;;;8.00;;
9072;SDS011;4572;41.642;25.370;2023-12-07T08:27:30;17.43;;;8.67;;
9072;SDS011;4572;41.642;25.370;2023-12-07T08:29:57;16.13;;;7.30;;
9072;SDS011;4572;41.642;25.370;2023-12-07T08:32:23;13.67;;;7.63;;
9072;SDS011;4572;41.642;25.370;2023-12-07T08:34:51;17.63;;;8.57;;
9072;SDS011;4572;41.642;25.370;2023-12-07T08:37:17;18.90;;;9.87;;
9072;SDS011;4572;41.642;25.370;2023-12-07T08:39:43;12.80;;;7.47;;
9072;SDS011;4572;41.642;25.370;2023-12-07T08:42:09;13.20;;;7.07;;
9072;SDS011;4572;41.642;25.370;2023-12-07T08:44:34;18.50;;;10.17;;
9072;SDS011;4572;41.642;25.370;2023-12-07T08:47:00;12.20;;;7.27;;
9072;SDS011;4572;41.642;25.370;2023-12-07T08:49:25;11.07;;;6.73;;
9072;SDS011;4572;41.642;25.370;2023-12-07T08:51:52;14.80;;;8.23;;
9072;SDS011;4572;41.642;25.370;2023-12-07T08:54:18;13.80;;;8.10;;
9072;SDS011;4572;41.642;25.370;2023-12-07T08:56:44;14.20;;;8.00;;
9072;SDS011;4572;41.642;25.370;2023-12-07T08:59:10;13.40;;;7.77;;
9072;SDS011;4572;41.642;25.370;2023-12-07T09:01:36;14.93;;;8.40;;
9072;SDS011;4572;41.642;25.370;2023-12-07T09:04:01;13.27;;;7.67;;
9072;SDS011;4572;41.642;25.370;2023-12-07T09:06:27;14.13;;;7.50;;
9072;SDS011;4572;41.642;25.370;2023-12-07T09:08:53;12.33;;;7.43;;
9072;SDS011;4572;41.642;25.370;2023-12-07T09:11:18;20.30;;;10.20;;
9072;SDS011;4572;41.642;25.370;2023-12-07T09:13:44;15.70;;;7.97;;
9072;SDS011;4572;41.642;25.370;2023-12-07T09:16:09;14.37;;;8.07;;
9072;SDS011;4572;41.642;25.370;2023-12-07T09:18:35;18.60;;;8.63;;
9072;SDS011;4572;41.642;25.370;2023-12-07T09:21:04;19.13;;;8.87;;
9072;SDS011;4572;41.642;25.370;2023-12-07T09:23:30;14.20;;;8.43;;
9072;SDS011;4572;41.642;25.370;2023-12-07T09:25:56;15.07;;;8.77;;
9072;SDS011;4572;41.642;25.370;2023-12-07T09:28:22;15.03;;;7.20;;
9072;SDS011;4572;41.642;25.370;2023-12-07T09:30:49;14.87;;;8.43;;
9072;SDS011;4572;41.642;25.370;2023-12-07T09:33:14;14.00;;;8.70;;
9072;SDS011;4572;41.642;25.370;2023-12-07T09:35:42;13.80;;;7.37;;
9072;SDS011;4572;41.642;25.370;2023-12-07T09:38:07;14.97;;;8.80;;
9072;SDS011;4572;41.642;25.370;2023-12-07T09:40:34;18.07;;;9.37;;
9072;SDS011;4572;41.642;25.370;2023-12-07T09:43:06;14.97;;;8.80;;
9072;SDS011;4572;41.642;25.370;2023-12-07T09:45:32;15.70;;;9.23;;
9072;SDS011;4572;41.642;25.370;2023-12-07T09:47:58;16.47;;;10.57;;
9072;SDS011;4572;41.642;25.370;2023-12-07T09:50:25;19.33;;;9.20;;
9072;SDS011;4572;41.642;25.370;2023-12-07T09:52:53;17.45;;;10.45;;
9072;SDS011;4572;41.642;25.370;2023-12-07T09:55:21;13.00;;;8.53;;
9072;SDS011;4572;41.642;25.370;2023-12-07T09:57:48;12.27;;;8.33;;
9072;SDS011;4572;41.642;25.370;2023-12-07T10:00:14;14.37;;;8.20;;
9072;SDS011;4572;41.642;25.370;2023-12-07T10:02:41;14.73;;;8.27;;
9072;SDS011;4572;41.642;25.370;2023-12-07T10:05:08;13.47;;;8.23;;
9072;SDS011;4572;41.642;25.370;2023-12-07T10:07:44;14.87;;;8.90;;
9072;SDS011;4572;41.642;25.370;2023-12-07T10:10:13;15.57;;;9.03;;
9072;SDS011;4572;41.642;25.370;2023-12-07T10:12:55;13.40;;;7.87;;
9072;SDS011;4572;41.642;25.370;2023-12-07T10:15:25;14.83;;;8.30;;
9072;SDS011;4572;41.642;25.370;2023-12-07T10:17:57;14.27;;;8.60;;
9072;SDS011;4572;41.642;25.370;2023-12-07T10:20:28;12.67;;;8.07;;
9072;SDS011;4572;41.642;25.370;2023-12-07T10:23:04;16.83;;;8.93;;
9072;SDS011;4572;41.642;25.370;2023-12-07T10:25:31;14.37;;;8.67;;
9072;SDS011;4572;41.642;25.370;2023-12-07T10:27:58;15.47;;;9.63;;
9072;SDS011;4572;41.642;25.370;2023-12-07T10:30:23;16.20;;;8.83;;
9072;SDS011;4572;41.642;25.370;2023-12-07T10:32:51;17.60;;;10.73;;
9072;SDS011;4572;41.642;25.370;2023-12-07T10:35:17;13.60;;;8.23;;
9072;SDS011;4572;41.642;25.370;2023-12-07T10:37:44;15.70;;;9.33;;
9072;SDS011;4572;41.642;25.370;2023-12-07T10:40:10;20.60;;;10.57;;
9072;SDS011;4572;41.642;25.370;2023-12-07T10:42:36;49.13;;;28.23;;
9072;SDS011;4572;41.642;25.370;2023-12-07T10:45:03;18.63;;;11.27;;
9072;SDS011;4572;41.642;25.370;2023-12-07T10:47:38;15.73;;;9.73;;
9072;SDS011;4572;41.642;25.370;2023-12-07T10:50:05;21.73;;;11.07;;
9072;SDS011;4572;41.642;25.370;2023-12-07T10:52:36;14.07;;;8.67;;
9072;SDS011;4572;41.642;25.370;2023-12-07T10:55:06;19.13;;;12.67;;
9072;SDS011;4572;41.642;25.370;2023-12-07T10:57:34;15.70;;;8.47;;
9072;SDS011;4572;41.642;25.370;2023-12-07T11:00:00;19.63;;;10.33;;
9072;SDS011;4572;41.642;25.370;2023-12-07T11:02:29;13.53;;;8.10;;
9072;SDS011;4572;41.642;25.370;2023-12-07T11:04:55;17.83;;;9.77;;
9072;SDS011;4572;41.642;25.370;2023-12-07T11:07:22;13.67;;;7.97;;
9072;SDS011;4572;41.642;25.370;2023-12-07T11:09:54;11.83;;;8.00;;
9072;SDS011;4572;41.642;25.370;2023-12-07T11:12:36;16.60;;;8.93;;
9072;SDS011;4572;41.642;25.370;2023-12-07T11:15:13;15.17;;;8.80;;
9072;SDS011;4572;41.642;25.370;2023-12-07T11:17:55;11.33;;;6.90;;
9072;SDS011;4572;41.642;25.370;2023-12-07T11:20:22;12.93;;;7.90;;
9072;SDS011;4572;41.642;25.370;2023-12-07T11:22:56;32.50;;;14.57;;
9072;SDS011;4572;41.642;25.370;2023-12-07T11:25:22;35.70;;;16.03;;
9072;SDS011;4572;41.642;25.370;2023-12-07T11:27:47;17.93;;;9.13;;
9072;SDS011;4572;41.642;25.370;2023-12-07T11:30:16;13.07;;;7.90;;
9072;SDS011;4572;41.642;25.370;2023-12-07T11:32:42;14.23;;;7.27;;
9072;SDS011;4572;41.642;25.370;2023-12-07T11:35:11;17.13;;;8.70;;
9072;SDS011;4572;41.642;25.370;2023-12-07T11:40:44;17.40;;;6.80;;
9072;SDS011;4572;41.642;25.370;2023-12-07T11:46:09;10.90;;;7.00;;
9072;SDS011;4572;41.642;25.370;2023-12-07T11:48:35;10.53;;;6.30;;
9072;SDS011;4572;41.642;25.370;2023-12-07T11:51:05;19.23;;;10.40;;
9072;SDS011;4572;41.642;25.370;2023-12-07T11:53:36;26.17;;;15.33;;
9072;SDS011;4572;41.642;25.370;2023-12-07T11:56:06;10.90;;;6.57;;
9072;SDS011;4572;41.642;25.370;2023-12-07T11:58:36;12.97;;;6.43;;
9072;SDS011;4572;41.642;25.370;2023-12-07T12:01:02;10.47;;;6.03;;
9072;SDS011;4572;41.642;25.370;2023-12-07T12:03:29;10.57;;;6.73;;
9072;SDS011;4572;41.642;25.370;2023-12-07T12:05:58;8.27;;;5.90;;
9072;SDS011;4572;41.642;25.370;2023-12-07T12:08:24;11.73;;;5.97;;
9072;SDS011;4572;41.642;25.370;2023-12-07T12:10:50;12.33;;;6.07;;
9072;SDS011;4572;41.642;25.370;2023-12-07T12:13:18;15.63;;;9.10;;
9072;SDS011;4572;41.642;25.370;2023-12-07T12:15:44;14.63;;;7.33;;
9072;SDS011;4572;41.642;25.370;2023-12-07T12:18:12;9.83;;;6.47;;
9072;SDS011;4572;41.642;25.370;2023-12-07T12:20:39;9.80;;;5.73;;
9072;SDS011;4572;41.642;25.370;2023-12-07T12:23:05;11.23;;;5.70;;
9072;SDS011;4572;41.642;25.370;2023-12-07T12:25:30;8.97;;;5.33;;
9072;SDS011;4572;41.642;25.370;2023-12-07T12:27:57;12.30;;;5.90;;
9072;SDS011;4572;41.642;25.370;2023-12-07T12:30:23;11.83;;;5.93;;
9072;SDS011;4572;41.642;25.370;2023-12-07T12:32:49;14.43;;;7.80;;
9072;SDS011;4572;41.642;25.370;2023-12-07T12:35:16;15.03;;;6.13;;
9072;SDS011;4572;41.642;25.370;2023-12-07T12:37:45;12.30;;;7.57;;
9072;SDS011;4572;41.642;25.370;2023-12-07T12:40:11;12.77;;;6.23;;
9072;SDS011;4572;41.642;25.370;2023-12-07T12:42:41;12.57;;;7.07;;
9072;SDS011;4572;41.642;25.370;2023-12-07T12:45:08;9.77;;;5.63;;
9072;SDS011;4572;41.642;25.370;2023-12-07T12:47:34;9.60;;;5.23;;
9072;SDS011;4572;41.642;25.370;2023-12-07T12:50:02;16.67;;;9.80;;
9072;SDS011;4572;41.642;25.370;2023-12-07T12:52:31;12.07;;;6.80;;
9072;SDS011;4572;41.642;25.370;2023-12-07T12:54:56;11.63;;;6.43;;
9072;SDS011;4572;41.642;25.370;2023-12-07T12:57:22;14.63;;;7.93;;
9072;SDS011;4572;41.642;25.370;2023-12-07T12:59:50;31.43;;;19.30;;
9072;SDS011;4572;41.642;25.370;2023-12-07T13:02:16;16.17;;;7.80;;
9072;SDS011;4572;41.642;25.370;2023-12-07T13:04:43;13.77;;;7.47;;
9072;SDS011;4572;41.642;25.370;2023-12-07T13:07:11;11.50;;;6.47;;
9072;SDS011;4572;41.642;25.370;2023-12-07T13:09:38;12.63;;;6.53;;
9072;SDS011;4572;41.642;25.370;2023-12-07T13:12:04;13.00;;;6.63;;
9072;SDS011;4572;41.642;25.370;2023-12-07T13:14:29;11.70;;;6.83;;
9072;SDS011;4572;41.642;25.370;2023-12-07T13:16:55;14.47;;;7.87;;
9072;SDS011;4572;41.642;25.370;2023-12-07T13:19:21;16.03;;;8.63;;
9072;SDS011;4572;41.642;25.370;2023-12-07T13:21:47;12.73;;;7.00;;
9072;SDS011;4572;41.642;25.370;2023-12-07T13:24:12;14.67;;;6.97;;
9072;SDS011;4572;41.642;25.370;2023-12-07T13:26:38;10.20;;;6.27;;
9072;SDS011;4572;41.642;25.370;2023-12-07T13:29:04;10.00;;;6.57;;
9072;SDS011;4572;41.642;25.370;2023-12-07T13:31:30;16.37;;;7.10;;
9072;SDS011;4572;41.642;25.370;2023-12-07T13:33:56;15.47;;;8.30;;
9072;SDS011;4572;41.642;25.370;2023-12-07T13:36:22;10.50;;;7.20;;
9072;SDS011;4572;41.642;25.370;2023-12-07T13:38:51;12.87;;;6.73;;
9072;SDS011;4572;41.642;25.370;2023-12-07T13:41:16;13.07;;;6.87;;
9072;SDS011;4572;41.642;25.370;2023-12-07T13:43:42;16.17;;;7.73;;
9072;SDS011;4572;41.642;25.370;2023-12-07T13:46:07;13.43;;;8.07;;
9072;SDS011;4572;41.642;25.370;2023-12-07T13:48:33;12.20;;;6.60;;
9072;SDS011;4572;41.642;25.370;2023-12-07T13:50:59;10.83;;;6.00;;
9072;SDS011;4572;41.642;25.370;2023-12-07T13:53:24;12.13;;;6.00;;
9072;SDS011;4572;41.642;25.370;2023-12-07T13:55:50;8.47;;;5.03;;
9072;SDS011;4572;41.642;25.370;2023-12-07T13:58:16;10.80;;;5.73;;
9072;SDS011;4572;41.642;25.370;2023-12-07T14:00:42;10.83;;;6.00;;
9072;SDS011;4572;41.642;25.370;2023-12-07T14:03:10;8.93;;;5.60;;
9072;SDS011;4572;41.642;25.370;2023-12-07T14:05:37;8.60;;;5.07;;
9072;SDS011;4572;41.642;25.370;2023-12-07T14:08:04;10.90;;;6.20;;
9072;SDS011;4572;41.642;25.370;2023-12-07T14:10:30;10.97;;;7.03;;
9072;SDS011;4572;41.642;25.370;2023-12-07T14:12:56;9.50;;;4.90;;
9072;SDS011;4572;41.642;25.370;2023-12-07T14:15:21;20.23;;;11.00;;
9072;SDS011;4572;41.642;25.370;2023-12-07T14:17:47;11.80;;;6.70;;
9072;SDS011;4572;41.642;25.370;2023-12-07T14:20:12;9.47;;;5.50;;
9072;SDS011;4572;41.642;25.370;2023-12-07T14:22:39;9.37;;;5.00;;
9072;SDS011;4572;41.642;25.370;2023-12-07T14:25:04;7.47;;;4.90;;
9072;SDS011;4572;41.642;25.370;2023-12-07T14:27:30;9.67;;;5.50;;
9072;SDS011;4572;41.642;25.370;2023-12-07T14:29:56;7.80;;;4.87;;
9072;SDS011;4572;41.642;25.370;2023-12-07T14:32:22;9.77;;;5.33;;
9072;SDS011;4572;41.642;25.370;2023-12-07T14:34:47;8.77;;;5.50;;
9072;SDS011;4572;41.642;25.370;2023-12-07T14:37:13;9.60;;;5.47;;
9072;SDS011;4572;41.642;25.370;2023-12-07T14:39:41;16.83;;;8.33;;
9072;SDS011;4572;41.642;25.370;2023-12-07T14:42:09;13.23;;;6.50;;
9072;SDS011;4572;41.642;25.370;2023-12-07T14:44:34;13.90;;;7.13;;
9072;SDS011;4572;41.642;25.370;2023-12-07T14:47:00;15.47;;;8.90;;
9072;SDS011;4572;41.642;25.370;2023-12-07T14:49:26;15.83;;;7.90;;
9072;SDS011;4572;41.642;25.370;2023-12-07T14:51:53;15.07;;;8.17;;